createdAt,value
2023-05-06T00:00:22.950Z,96921.34
2023-05-06T00:02:54.621Z,96910.50
2023-05-06T00:05:26.485Z,96918.25
2023-05-06T00:07:58.130Z,96915.66
2023-05-06T00:10:29.774Z,96915.03
2023-05-06T00:13:01.427Z,96915.44
2023-05-06T00:15:33.091Z,96914.41
2023-05-06T00:18:05.131Z,96919.75
2023-05-06T00:20:36.758Z,96918.88
2023-05-06T00:23:08.351Z,96936.41
2023-05-06T00:25:39.966Z,96945.03
2023-05-06T00:28:11.536Z,96938.84
2023-05-06T00:30:43.852Z,96927.56
2023-05-06T00:33:15.592Z,96912.31
2023-05-06T00:35:47.189Z,96912.22
2023-05-06T00:38:19.098Z,96927.44
2023-05-06T00:40:50.766Z,96925.03
2023-05-06T00:43:22.442Z,96923.81
2023-05-06T00:45:54.561Z,96929.28
2023-05-06T00:48:26.255Z,96926.00
2023-05-06T00:50:57.830Z,96923.66
2023-05-06T00:53:30.190Z,96923.66
2023-05-06T00:56:03.345Z,96932.69
2023-05-06T00:58:35.143Z,96925.88
2023-05-06T01:01:06.932Z,96918.50
2023-05-06T01:03:38.704Z,96921.19
2023-05-06T01:06:15.955Z,96916.69
2023-05-06T01:08:58.698Z,96909.03
2023-05-06T01:11:41.083Z,96907.06
2023-05-06T01:14:46.940Z,96917.66
2023-05-06T01:17:20.319Z,96913.69
2023-05-06T01:19:52.341Z,96914.78
2023-05-06T01:22:26.158Z,96918.75
2023-05-06T01:24:57.808Z,96915.59
2023-05-06T01:27:29.487Z,96908.31
2023-05-06T01:30:02.043Z,96909.38
2023-05-06T01:32:38.029Z,96909.34
2023-05-06T01:35:13.122Z,96908.94
2023-05-06T01:37:52.113Z,96907.78
2023-05-06T01:40:27.838Z,96908.31
2023-05-06T01:43:01.825Z,96903.25
2023-05-06T01:45:37.382Z,96911.63
2023-05-06T01:48:10.073Z,96908.84
2023-05-06T01:50:43.867Z,96912.09
2023-05-06T01:53:15.574Z,96911.97
2023-05-06T01:55:48.163Z,96914.78
2023-05-06T01:58:21.813Z,96903.09
2023-05-06T02:00:53.666Z,96907.38
2023-05-06T02:03:25.651Z,96910.16
2023-05-06T02:05:58.079Z,96913.47
2023-05-06T02:08:31.780Z,96916.22
2023-05-06T02:11:03.795Z,96927.28
2023-05-06T02:13:36.925Z,96928.41
2023-05-06T02:16:09.272Z,96923.94
2023-05-06T02:18:41.715Z,96938.13
2023-05-06T02:21:13.901Z,96934.66
2023-05-06T02:23:45.629Z,96924.88
2023-05-06T02:26:18.416Z,96930.28
2023-05-06T02:28:50.033Z,96926.03
2023-05-06T02:31:21.644Z,96918.72
2023-05-06T02:33:53.402Z,96924.47
2023-05-06T02:36:24.999Z,96928.00
2023-05-06T02:38:59.660Z,96921.34
2023-05-06T02:41:31.196Z,96922.47
2023-05-06T02:44:02.853Z,96917.34
2023-05-06T02:46:36.066Z,96918.56
2023-05-06T02:49:07.684Z,96911.69
2023-05-06T02:51:39.285Z,96906.03
2023-05-06T02:54:10.989Z,96909.53
2023-05-06T02:56:42.594Z,96915.75
2023-05-06T02:59:14.219Z,96915.22
2023-05-06T03:01:45.796Z,96915.81
2023-05-06T03:04:17.431Z,96908.56
2023-05-06T03:06:48.998Z,96913.06
2023-05-06T03:09:20.769Z,96911.00
2023-05-06T03:11:52.860Z,96903.25
2023-05-06T03:14:25.959Z,96902.50
2023-05-06T03:16:58.000Z,96899.09
2023-05-06T03:19:30.111Z,96890.56
2023-05-06T03:22:02.469Z,96892.19
2023-05-06T03:24:35.990Z,96891.28
2023-05-06T03:27:10.319Z,96890.06
2023-05-06T03:29:42.637Z,96895.88
2023-05-06T03:32:15.925Z,96898.13
2023-05-06T03:34:49.347Z,96895.16
2023-05-06T03:37:28.519Z,96895.03
2023-05-06T03:40:01.952Z,96902.34
2023-05-06T03:42:34.865Z,96903.00
2023-05-06T03:45:07.511Z,96906.19
2023-05-06T03:47:39.393Z,96894.88
2023-05-06T03:50:13.059Z,96899.84
2023-05-06T03:52:46.042Z,96893.69
2023-05-06T03:55:17.852Z,96900.66
2023-05-06T03:57:49.562Z,96902.84
2023-05-06T04:00:21.802Z,96899.38
2023-05-06T04:02:57.852Z,96895.31
2023-05-06T04:05:36.609Z,96901.66
2023-05-06T04:08:09.225Z,96896.00
2023-05-06T04:10:41.001Z,96891.13
2023-05-06T04:13:21.282Z,96901.59
2023-05-06T04:15:54.088Z,96897.09
2023-05-06T04:18:31.056Z,96899.25
2023-05-06T04:21:08.468Z,96897.03
2023-05-06T04:23:42.403Z,96897.69
2023-05-06T04:26:16.677Z,96901.25
2023-05-06T04:28:50.221Z,96897.66
2023-05-06T04:31:22.801Z,96906.00
2023-05-06T04:33:55.786Z,96905.03
2023-05-06T04:36:30.501Z,96910.53
2023-05-06T04:39:16.505Z,96905.63
2023-05-06T04:41:48.239Z,96906.28
2023-05-06T04:44:25.012Z,96909.41
2023-05-06T04:46:57.931Z,96905.09
2023-05-06T04:49:30.653Z,96903.59
2023-05-06T04:52:02.403Z,96904.91
2023-05-06T04:54:34.156Z,96916.69
2023-05-06T04:57:05.913Z,96917.75
2023-05-06T04:59:38.792Z,96910.13
2023-05-06T05:02:11.427Z,96922.44
2023-05-06T05:04:45.226Z,96922.16
2023-05-06T05:07:17.030Z,96916.31
2023-05-06T05:09:48.711Z,96920.56
2023-05-06T05:12:20.289Z,96931.03
2023-05-06T05:14:55.308Z,96930.84
2023-05-06T05:17:27.575Z,96921.75
2023-05-06T05:19:59.200Z,96934.06
2023-05-06T05:22:32.240Z,96926.72
2023-05-06T05:25:07.486Z,96923.50
2023-05-06T05:27:39.961Z,96925.84
2023-05-06T05:30:12.437Z,96922.47
2023-05-06T05:32:44.623Z,96933.25
2023-05-06T05:35:16.299Z,96932.97
2023-05-06T05:37:49.085Z,96936.72
2023-05-06T05:40:21.080Z,96938.44
2023-05-06T05:42:56.519Z,96933.72
2023-05-06T05:45:35.267Z,96939.63
2023-05-06T05:48:07.357Z,96947.69
2023-05-06T05:50:38.994Z,96934.44
2023-05-06T05:53:11.258Z,96938.00
2023-05-06T05:55:43.419Z,96939.59
2023-05-06T05:58:15.296Z,96942.56
2023-05-06T06:00:48.655Z,96942.66
2023-05-06T06:03:22.754Z,96944.28
2023-05-06T06:05:54.472Z,96949.88
2023-05-06T06:08:26.231Z,96947.03
2023-05-06T06:10:58.354Z,96948.81
2023-05-06T06:13:36.249Z,96952.22
2023-05-06T06:16:08.261Z,96946.75
2023-05-06T06:18:40.273Z,96951.50
2023-05-06T06:21:12.088Z,96946.25
2023-05-06T06:23:44.758Z,96950.78
2023-05-06T06:26:16.931Z,96948.66
2023-05-06T06:28:48.638Z,96944.00
2023-05-06T06:31:20.607Z,96946.31
2023-05-06T06:33:52.320Z,96949.13
2023-05-06T06:36:24.057Z,96944.06
2023-05-06T06:38:55.814Z,96953.97
2023-05-06T06:41:27.788Z,96940.84
2023-05-06T06:43:59.423Z,96941.72
2023-05-06T06:46:34.146Z,96948.13
2023-05-06T06:49:05.964Z,96938.44
2023-05-06T06:51:37.791Z,96939.22
2023-05-06T06:54:09.473Z,96932.81
2023-05-06T06:56:41.149Z,96953.44
2023-05-06T06:59:12.847Z,96944.41
2023-05-06T07:01:44.565Z,96939.59
2023-05-06T07:04:16.334Z,96953.31
2023-05-06T07:06:48.506Z,96947.69
2023-05-06T07:09:20.255Z,96948.19
2023-05-06T07:11:52.005Z,96952.81
2023-05-06T07:14:23.653Z,96956.13
2023-05-06T07:16:55.302Z,96949.16
2023-05-06T07:19:30.089Z,96943.94
2023-05-06T07:22:01.804Z,96948.09
2023-05-06T07:24:33.468Z,96956.63
2023-05-06T07:27:05.076Z,96953.47
2023-05-06T07:29:36.754Z,96950.41
2023-05-06T07:32:08.368Z,96955.47
2023-05-06T07:34:40.003Z,96950.41
2023-05-06T07:37:11.619Z,96952.13
2023-05-06T07:39:43.204Z,96947.03
2023-05-06T07:42:14.826Z,96949.69
2023-05-06T07:44:46.390Z,96940.69
2023-05-06T07:47:28.217Z,96951.66
2023-05-06T07:49:59.881Z,96948.56
2023-05-06T07:52:31.561Z,96949.75
2023-05-06T07:55:03.323Z,96944.75
2023-05-06T07:57:34.924Z,96952.13
2023-05-06T08:00:07.198Z,96948.63
2023-05-06T08:02:44.617Z,96949.97
2023-05-06T08:05:16.552Z,96944.59
2023-05-06T08:07:48.187Z,96942.13
2023-05-06T08:10:19.794Z,96945.91
2023-05-06T08:12:51.419Z,96940.50
2023-05-06T08:15:23.204Z,96945.91
2023-05-06T08:17:54.763Z,96936.00
2023-05-06T08:20:26.397Z,96936.94
2023-05-06T08:22:58.060Z,96932.81
2023-05-06T08:25:29.737Z,96928.94
2023-05-06T08:28:01.387Z,96924.34
2023-05-06T08:30:33.061Z,96934.06
2023-05-06T08:33:04.926Z,96936.69
2023-05-06T08:35:36.842Z,96933.66
2023-05-06T08:38:08.635Z,96930.56
2023-05-06T08:40:44.798Z,96924.09
2023-05-06T08:43:20.989Z,96924.38
2023-05-06T08:45:54.407Z,96927.22
2023-05-06T08:48:26.471Z,96920.59
2023-05-06T08:51:03.378Z,96922.53
2023-05-06T08:53:35.877Z,96927.56
2023-05-06T08:56:08.119Z,96916.13
2023-05-06T08:58:45.112Z,96915.44
2023-05-06T09:01:16.884Z,96916.78
2023-05-06T09:03:49.804Z,96914.75
2023-05-06T09:06:22.619Z,96924.53
2023-05-06T09:08:54.438Z,96926.91
2023-05-06T09:11:28.796Z,96919.03
2023-05-06T09:14:08.659Z,96913.25
2023-05-06T09:16:45.928Z,96907.81
2023-05-06T09:19:26.519Z,96909.41
2023-05-06T09:22:03.663Z,96905.97
2023-05-06T09:24:35.733Z,96911.44
2023-05-06T09:27:09.751Z,96900.16
2023-05-06T09:30:12.750Z,96892.56
2023-05-06T09:32:44.795Z,96888.84
2023-05-06T09:35:17.082Z,96897.19
2023-05-06T09:37:48.673Z,96886.41
2023-05-06T09:40:24.233Z,96892.13
2023-05-06T09:42:56.532Z,96892.13
2023-05-06T09:45:30.247Z,96890.75
2023-05-06T09:48:02.524Z,96886.81
2023-05-06T09:50:34.155Z,96887.72
2023-05-06T09:53:06.999Z,96878.47
2023-05-06T09:55:41.714Z,96879.03
2023-05-06T09:58:13.545Z,96877.88
2023-05-06T10:00:46.653Z,96877.59
2023-05-06T10:03:21.842Z,96872.22
2023-05-06T10:05:54.660Z,96866.47
2023-05-06T10:08:26.912Z,96866.91
2023-05-06T10:11:01.516Z,96868.31
2023-05-06T10:13:35.280Z,96863.06
2023-05-06T10:16:08.875Z,96860.19
2023-05-06T10:18:43.798Z,96857.91
2023-05-06T10:21:22.482Z,96855.69
2023-05-06T10:24:04.920Z,96850.09
2023-05-06T10:26:38.409Z,96847.09
2023-05-06T10:29:11.950Z,96850.75
2023-05-06T10:31:52.675Z,96842.56
2023-05-06T10:34:26.586Z,96846.56
2023-05-06T10:37:00.890Z,96832.16
2023-05-06T10:39:33.582Z,96837.94
2023-05-06T10:42:05.427Z,96832.25
2023-05-06T10:44:56.424Z,96835.44
2023-05-06T10:47:28.161Z,96837.03
2023-05-06T10:50:22.528Z,96829.59
2023-05-06T10:52:56.984Z,96831.47
2023-05-06T10:55:36.501Z,96830.94
2023-05-06T10:58:11.349Z,96830.88
2023-05-06T11:00:54.113Z,96814.75
2023-05-06T11:03:26.563Z,96818.00
2023-05-06T11:05:58.402Z,96819.22
2023-05-06T11:08:30.649Z,96809.59
2023-05-06T11:11:51.532Z,96816.44
2023-05-06T11:14:35.177Z,96810.00
2023-05-06T11:17:09.393Z,96797.81
2023-05-06T11:19:41.074Z,96802.25
2023-05-06T11:22:39.132Z,96802.66
2023-05-06T11:25:11.044Z,96802.09
2023-05-06T11:27:42.741Z,96796.03
2023-05-06T11:30:14.671Z,96792.34
2023-05-06T11:32:47.479Z,96786.44
2023-05-06T11:35:19.455Z,96788.28
2023-05-06T11:37:51.537Z,96783.25
2023-05-06T11:40:23.392Z,96788.81
2023-05-06T11:42:55.240Z,96779.69
2023-05-06T11:45:39.408Z,96777.16
2023-05-06T11:48:12.496Z,96784.91
2023-05-06T11:50:50.787Z,96781.78
2023-05-06T11:53:24.317Z,96783.78
2023-05-06T11:55:55.997Z,96787.25
2023-05-06T11:58:29.296Z,96788.81
2023-05-06T12:01:03.593Z,96776.75
2023-05-06T12:03:35.607Z,96788.78
2023-05-06T12:06:07.454Z,96780.56
2023-05-06T12:08:40.227Z,96771.63
2023-05-06T12:11:11.958Z,96770.44
2023-05-06T12:13:44.118Z,96774.41
2023-05-06T12:16:15.939Z,96771.91
2023-05-06T12:18:47.695Z,96773.00
2023-05-06T12:21:26.547Z,96764.13
2023-05-06T12:24:00.937Z,96758.16
2023-05-06T12:26:46.978Z,96761.72
2023-05-06T12:29:19.338Z,96759.50
2023-05-06T12:32:10.893Z,96769.31
2023-05-06T12:34:42.595Z,96765.47
2023-05-06T12:37:25.441Z,96751.19
2023-05-06T12:39:59.207Z,96761.75
2023-05-06T12:42:31.318Z,96755.13
2023-05-06T12:45:15.553Z,96750.84
2023-05-06T12:47:54.522Z,96747.19
2023-05-06T12:50:32.287Z,96746.66
2023-05-06T12:53:05.570Z,96745.00
2023-05-06T12:55:38.956Z,96737.56
2023-05-06T12:58:20.355Z,96737.59
2023-05-06T13:00:52.055Z,96731.19
2023-05-06T13:03:23.736Z,96736.59
2023-05-06T13:05:55.379Z,96732.50
2023-05-06T13:08:26.967Z,96733.56
2023-05-06T13:10:58.525Z,96725.78
2023-05-06T13:13:30.071Z,96726.13
2023-05-06T13:16:01.725Z,96725.38
2023-05-06T13:18:33.621Z,96732.78
2023-05-06T13:21:05.587Z,96723.53
2023-05-06T13:23:37.225Z,96721.91
2023-05-06T13:26:08.851Z,96715.38
2023-05-06T13:28:40.532Z,96718.81
2023-05-06T13:31:12.157Z,96714.25
2023-05-06T13:33:43.856Z,96701.25
2023-05-06T13:36:15.544Z,96705.91
2023-05-06T13:38:47.293Z,96698.81
2023-05-06T13:41:18.941Z,96702.22
2023-05-06T13:43:50.779Z,96696.97
2023-05-06T13:46:22.472Z,96698.94
2023-05-06T13:48:54.129Z,96702.38
2023-05-06T13:51:26.023Z,96688.41
2023-05-06T13:53:57.909Z,96678.69
2023-05-06T13:56:29.833Z,96689.19
2023-05-06T13:59:01.608Z,96690.66
2023-05-06T14:01:33.712Z,96684.56
2023-05-06T14:04:05.866Z,96685.44
2023-05-06T14:06:37.694Z,96682.84
2023-05-06T14:09:11.314Z,96683.59
2023-05-06T14:11:43.036Z,96691.31
2023-05-06T14:14:15.348Z,96692.84
2023-05-06T14:16:46.955Z,96692.44
2023-05-06T14:19:18.771Z,96691.88
2023-05-06T14:21:50.371Z,96695.00
2023-05-06T14:24:21.956Z,96689.59
2023-05-06T14:26:53.810Z,96683.47
2023-05-06T14:29:25.525Z,96699.97
2023-05-06T14:31:57.184Z,96704.16
2023-05-06T14:34:28.896Z,96711.13
2023-05-06T14:37:00.499Z,96716.94
2023-05-06T14:39:32.103Z,96718.69
2023-05-06T14:42:03.894Z,96716.34
2023-05-06T14:44:35.703Z,96719.31
2023-05-06T14:47:07.299Z,96720.28
2023-05-06T14:49:38.827Z,96702.75
2023-05-06T14:52:10.430Z,96678.31
2023-05-06T14:54:42.672Z,96675.16
2023-05-06T14:57:14.467Z,96693.09
2023-05-06T14:59:46.130Z,96688.94
2023-05-06T15:02:17.736Z,96685.44
2023-05-06T15:04:49.330Z,96681.34
2023-05-06T15:07:20.942Z,96691.84
2023-05-06T15:09:53.135Z,96674.50
2023-05-06T15:12:24.809Z,96675.09
2023-05-06T15:14:56.481Z,96671.03
2023-05-06T15:17:28.117Z,96651.00
2023-05-06T15:19:59.851Z,96655.31
2023-05-06T15:22:31.498Z,96646.06
2023-05-06T15:25:03.039Z,96660.22
2023-05-06T15:27:34.659Z,96664.97
2023-05-06T15:30:06.974Z,96665.59
2023-05-06T15:32:38.603Z,96659.63
2023-05-06T15:35:10.308Z,96667.38
2023-05-06T15:37:41.973Z,96666.94
2023-05-06T15:40:13.837Z,96665.44
2023-05-06T15:42:45.501Z,96666.13
2023-05-06T15:45:18.693Z,96657.13
2023-05-06T15:47:50.405Z,96656.03
2023-05-06T15:50:32.766Z,96652.22
2023-05-06T15:53:05.254Z,96662.63
2023-05-06T15:55:45.169Z,96659.13
2023-05-06T15:58:21.058Z,96657.25
2023-05-06T16:00:52.693Z,96650.38
2023-05-06T16:03:24.624Z,96646.66
2023-05-06T16:05:58.655Z,96648.47
2023-05-06T16:08:31.006Z,96646.28
2023-05-06T16:11:02.663Z,96653.63
2023-05-06T16:13:34.283Z,96651.66
2023-05-06T16:16:06.391Z,96649.22
2023-05-06T16:18:38.224Z,96647.44
2023-05-06T16:21:09.922Z,96639.81
2023-05-06T16:23:41.766Z,96649.53
2023-05-06T16:26:13.828Z,96643.31
2023-05-06T16:28:45.531Z,96643.72
2023-05-06T16:31:17.471Z,96645.31
2023-05-06T16:33:49.248Z,96635.59
2023-05-06T16:36:21.219Z,96639.66
2023-05-06T16:38:52.949Z,96642.91
2023-05-06T16:41:24.878Z,96641.94
2023-05-06T16:43:56.576Z,96652.72
2023-05-06T16:46:28.252Z,96648.31
2023-05-06T16:48:59.941Z,96644.94
2023-05-06T16:51:31.675Z,96642.16
2023-05-06T16:54:03.336Z,96642.03
2023-05-06T16:56:48.041Z,96641.94
2023-05-06T16:59:23.024Z,96639.25
2023-05-06T17:01:54.738Z,96646.63
2023-05-06T17:04:26.698Z,96643.09
2023-05-06T17:06:58.556Z,96648.22
2023-05-06T17:09:30.764Z,96653.56
2023-05-06T17:12:02.336Z,96639.13
2023-05-06T17:14:33.937Z,96648.91
2023-05-06T17:17:05.721Z,96644.00
2023-05-06T17:19:37.445Z,96640.69
2023-05-06T17:22:09.058Z,96642.63
2023-05-06T17:24:40.644Z,96639.09
2023-05-06T17:27:12.228Z,96639.50
2023-05-06T17:29:45.518Z,96640.25
2023-05-06T17:32:17.181Z,96634.38
2023-05-06T17:34:48.803Z,96637.13
2023-05-06T17:37:20.487Z,96634.94
2023-05-06T17:39:52.032Z,96643.75
2023-05-06T17:42:23.602Z,96638.38
2023-05-06T17:44:55.211Z,96643.44
2023-05-06T17:47:26.846Z,96638.38
2023-05-06T17:49:58.506Z,96637.16
2023-05-06T17:52:30.136Z,96634.56
2023-05-06T17:55:15.441Z,96635.28
2023-05-06T17:57:48.312Z,96638.38
2023-05-06T18:00:20.123Z,96636.06
2023-05-06T18:02:51.817Z,96638.84
2023-05-06T18:05:23.629Z,96629.53
2023-05-06T18:07:55.159Z,96630.50
2023-05-06T18:10:26.872Z,96632.34
2023-05-06T18:12:58.684Z,96629.31
2023-05-06T18:15:30.433Z,96641.00
2023-05-06T18:18:02.601Z,96643.81
2023-05-06T18:20:34.379Z,96638.47
2023-05-06T18:23:07.702Z,96643.06
2023-05-06T18:25:39.377Z,96644.81
2023-05-06T18:28:11.235Z,96639.31
2023-05-06T18:30:42.905Z,96642.78
2023-05-06T18:33:14.844Z,96642.28
2023-05-06T18:35:46.502Z,96642.00
2023-05-06T18:38:18.255Z,96642.91
2023-05-06T18:40:49.972Z,96640.25
2023-05-06T18:43:22.061Z,96638.13
2023-05-06T18:45:53.830Z,96640.88
2023-05-06T18:48:25.778Z,96644.25
2023-05-06T18:51:17.797Z,96643.00
2023-05-06T18:53:49.857Z,96648.97
2023-05-06T18:56:21.590Z,96645.09
2023-05-06T18:58:53.272Z,96648.41
2023-05-06T19:01:25.587Z,96635.94
2023-05-06T19:04:00.330Z,96654.13
2023-05-06T19:06:32.473Z,96647.31
2023-05-06T19:09:05.021Z,96654.56
2023-05-06T19:11:36.677Z,96653.81
2023-05-06T19:14:08.314Z,96649.66
2023-05-06T19:16:40.010Z,96652.31
2023-05-06T19:19:11.742Z,96662.88
2023-05-06T19:21:43.370Z,96650.72
2023-05-06T19:24:15.315Z,96655.88
2023-05-06T19:26:46.973Z,96657.28
2023-05-06T19:29:18.511Z,96675.00
2023-05-06T19:31:50.505Z,96665.69
2023-05-06T19:34:22.004Z,96676.47
2023-05-06T19:36:53.789Z,96680.81
2023-05-06T19:39:25.411Z,96671.56
2023-05-06T19:41:57.113Z,96685.47
2023-05-06T19:44:28.662Z,96675.38
2023-05-06T19:47:00.177Z,96676.13
2023-05-06T19:49:31.794Z,96679.06
2023-05-06T19:52:24.877Z,96675.34
2023-05-06T19:54:57.618Z,96679.91
2023-05-06T19:57:30.931Z,96679.41
2023-05-06T20:00:03.480Z,96683.94
2023-05-06T20:02:37.919Z,96672.47
2023-05-06T20:05:11.139Z,96680.59
2023-05-06T20:07:43.490Z,96685.66
2023-05-06T20:10:15.581Z,96681.13
2023-05-06T20:12:48.446Z,96687.09
2023-05-06T20:15:22.312Z,96687.09
2023-05-06T20:17:54.677Z,96684.66
2023-05-06T20:20:26.969Z,96689.78
2023-05-06T20:22:58.926Z,96690.81
2023-05-06T20:25:32.399Z,96683.22
2023-05-06T20:28:06.284Z,96692.63
2023-05-06T20:30:38.126Z,96694.03
2023-05-06T20:33:10.492Z,96699.91
2023-05-06T20:35:45.095Z,96700.78
2023-05-06T20:38:16.741Z,96697.47
2023-05-06T20:40:51.039Z,96692.50
2023-05-06T20:43:23.102Z,96697.06
2023-05-06T20:45:54.790Z,96687.94
2023-05-06T20:48:26.438Z,96688.41
2023-05-06T20:50:58.109Z,96687.81
2023-05-06T20:53:29.996Z,96684.25
2023-05-06T20:56:01.625Z,96690.66
2023-05-06T20:58:33.187Z,96691.31
2023-05-06T21:01:04.745Z,96694.28
2023-05-06T21:03:36.429Z,96688.28
2023-05-06T21:06:08.146Z,96697.84
2023-05-06T21:08:39.734Z,96686.84
2023-05-06T21:11:11.361Z,96692.78
2023-05-06T21:13:42.976Z,96688.44
2023-05-06T21:16:14.594Z,96686.94
2023-05-06T21:18:46.804Z,96694.13
2023-05-06T21:21:18.512Z,96688.41
2023-05-06T21:23:50.909Z,96693.97
2023-05-06T21:26:22.593Z,96692.16
2023-05-06T21:28:54.296Z,96693.03
2023-05-06T21:31:25.959Z,96690.75
2023-05-06T21:33:59.058Z,96687.66
2023-05-06T21:36:30.679Z,96693.97
2023-05-06T21:39:13.474Z,96700.41
2023-05-06T21:41:45.070Z,96701.03
2023-05-06T21:44:16.611Z,96707.53
2023-05-06T21:46:48.244Z,96700.13
2023-05-06T21:49:19.905Z,96698.81
2023-05-06T21:51:51.550Z,96695.97
2023-05-06T21:54:23.113Z,96693.63
2023-05-06T21:56:54.820Z,96697.47
2023-05-06T21:59:26.368Z,96703.41
2023-05-06T22:01:57.978Z,96702.97
2023-05-06T22:04:29.713Z,96701.63
2023-05-06T22:07:01.346Z,96698.72
2023-05-06T22:09:33.000Z,96703.38
2023-05-06T22:12:04.684Z,96712.47
2023-05-06T22:14:41.253Z,96710.94
2023-05-06T22:17:13.265Z,96701.66
2023-05-06T22:19:44.884Z,96706.94
2023-05-06T22:22:17.097Z,96709.66
2023-05-06T22:24:48.735Z,96713.13
2023-05-06T22:27:20.275Z,96721.47
2023-05-06T22:29:51.880Z,96725.53
2023-05-06T22:32:23.518Z,96720.50
2023-05-06T22:34:55.134Z,96728.22
2023-05-06T22:37:26.669Z,96725.19
2023-05-06T22:39:58.271Z,96730.66
2023-05-06T22:42:29.841Z,96727.75
2023-05-06T22:45:01.472Z,96722.84
2023-05-06T22:47:33.180Z,96720.47
2023-05-06T22:50:05.556Z,96724.34
2023-05-06T22:52:37.173Z,96722.66
2023-05-06T22:55:09.054Z,96721.72
2023-05-06T22:57:40.766Z,96716.81
2023-05-06T23:00:12.840Z,96712.06
2023-05-06T23:02:51.805Z,96714.66
2023-05-06T23:05:23.534Z,96720.88
2023-05-06T23:07:55.140Z,96709.38
2023-05-06T23:10:26.732Z,96703.28
2023-05-06T23:13:04.355Z,96708.13
2023-05-06T23:15:36.016Z,96711.88
2023-05-06T23:18:07.823Z,96712.78
2023-05-06T23:20:39.558Z,96719.47
2023-05-06T23:23:11.188Z,96717.13
2023-05-06T23:25:42.809Z,96714.63
2023-05-06T23:28:14.506Z,96726.78
2023-05-06T23:30:46.289Z,96718.69
2023-05-06T23:33:17.888Z,96723.16
2023-05-06T23:35:49.416Z,96728.69
2023-05-06T23:38:21.148Z,96728.81
2023-05-06T23:40:52.821Z,96732.41
2023-05-06T23:43:24.520Z,96741.81
2023-05-06T23:45:56.127Z,96732.41
2023-05-06T23:48:27.790Z,96734.59
2023-05-06T23:50:59.450Z,96741.16
2023-05-06T23:53:31.129Z,96727.69
2023-05-06T23:56:03.138Z,96736.00
2023-05-06T23:58:34.772Z,96740.09
